aviador You're here:

UBBB Decoded Metar

BAKU in AZERBAIJAN
Report Time2017-10-18 20:00:00
UTC Time2017-10-18 20:25:56
Flight Rules mvfr MVFR
WindCalm
Visibility6000 m
Phenomena:Mist
Patches Fog
Clouds:N/A
Expected CloudBase > 400 ft AGL from Temp-Dew spread
CeilingNone
Temp10°C (ISA -5)
Dew Point09°C (94% RH)
AAT9.8°C
QNH1026 hPa
Density Alt-909 ft
Elevation-20 ft
Report Wrong Elevation
Raw Report
UBBB 182000Z 00000KT 6000 BCFG NSC 10/09 Q1026 R88/CLRD// TEMPO
3000 BR SCT006=

Extra information for UBBB:More info

Metar Taf Metar & Taf Last 4 Metars F.Rules Stats Wind Profile Meteogram Temp Stats Airport Information Weather charts Add Link Nearby VenuesMetar ALERT Operation Metar Decoded Social comments